createdAt,value
2023-09-08T00:02:30.154Z,75.56
2023-09-08T00:05:39.062Z,76.10
2023-09-08T00:08:46.374Z,75.79
2023-09-08T00:11:53.493Z,76.84
2023-09-08T00:15:02.735Z,77.68
2023-09-08T00:18:10.739Z,78.69
2023-09-08T00:21:18.812Z,78.83
2023-09-08T00:24:28.145Z,79.33
2023-09-08T00:27:36.460Z,79.23
2023-09-08T00:30:44.682Z,79.13
2023-09-08T00:33:52.234Z,78.59
2023-09-08T00:37:01.059Z,78.19
2023-09-08T00:40:08.440Z,77.98
2023-09-08T00:43:15.926Z,77.88
2023-09-08T00:46:24.629Z,77.75
2023-09-08T00:49:32.127Z,77.75
2023-09-08T00:52:39.466Z,77.44
2023-09-08T00:55:40.537Z,77.14
2023-09-08T00:58:47.669Z,77.14
2023-09-08T01:01:55.034Z,77.04
2023-09-08T01:05:04.247Z,77.14
2023-09-08T01:08:11.756Z,77.24
2023-09-08T01:11:20.843Z,77.24
2023-09-08T01:14:27.946Z,77.24
2023-09-08T01:17:37.037Z,77.34
2023-09-08T01:20:44.470Z,77.44
2023-09-08T01:23:52.540Z,77.55
2023-09-08T01:27:02.614Z,77.55
2023-09-08T01:30:09.463Z,77.64
2023-09-08T01:33:17.580Z,77.64
2023-09-08T01:39:22.807Z,77.84
2023-09-08T01:42:31.821Z,78.15
2023-09-08T01:45:41.320Z,78.28
2023-09-08T01:48:48.331Z,78.39
2023-09-08T01:51:56.163Z,78.49
2023-09-08T01:55:04.001Z,78.69
2023-09-08T01:58:13.342Z,78.89
2023-09-08T02:01:20.887Z,79.23
2023-09-08T02:04:28.398Z,79.43
2023-09-08T02:07:37.126Z,79.63
2023-09-08T02:10:45.738Z,79.53
2023-09-08T02:13:53.886Z,79.63
2023-09-08T02:17:03.271Z,79.83
2023-09-08T02:20:11.258Z,79.93
2023-09-08T02:23:17.871Z,79.93
2023-09-08T02:26:26.764Z,80.04
2023-09-08T02:29:33.927Z,80.04
2023-09-08T02:32:41.176Z,80.04
2023-09-08T02:35:50.066Z,80.04
2023-09-08T02:38:57.137Z,80.04
2023-09-08T02:42:04.975Z,80.18
2023-09-08T02:45:12.163Z,80.27
2023-09-08T02:48:21.030Z,80.27
2023-09-08T02:51:28.027Z,80.38
2023-09-08T02:54:36.295Z,80.27
2023-09-08T02:57:45.482Z,80.68
2023-09-08T03:00:52.675Z,80.47
2023-09-08T03:04:00.105Z,80.58
2023-09-08T03:07:09.243Z,80.78
2023-09-08T03:10:16.699Z,81.08
2023-09-08T03:13:24.550Z,80.98
2023-09-08T03:16:33.468Z,80.98
2023-09-08T03:19:40.752Z,81.22
2023-09-08T03:22:48.084Z,81.32
2023-09-08T03:25:56.171Z,81.42
2023-09-08T03:29:05.491Z,81.52
2023-09-08T03:32:12.692Z,81.73
2023-09-08T03:35:20.220Z,81.82
2023-09-08T03:38:29.140Z,82.03
2023-09-08T03:41:36.551Z,82.47
2023-09-08T03:44:43.956Z,82.67
2023-09-08T03:47:52.857Z,83.01
2023-09-08T03:51:00.197Z,83.42
2023-09-08T03:54:08.693Z,83.22
2023-09-08T03:57:17.411Z,83.62
2023-09-08T04:00:24.791Z,83.72
2023-09-08T04:03:32.894Z,83.82
2023-09-08T04:06:41.604Z,83.82
2023-09-08T04:09:50.853Z,83.52
2023-09-08T04:12:57.796Z,83.28
2023-09-08T04:16:05.186Z,83.18
2023-09-08T04:19:13.549Z,83.38
2023-09-08T04:22:21.038Z,83.72
2023-09-08T04:25:28.586Z,83.82
2023-09-08T04:28:37.997Z,84.03
2023-09-08T04:31:45.458Z,84.12
2023-09-08T04:34:52.498Z,84.57
2023-09-08T04:38:03.557Z,84.97
2023-09-08T04:41:02.646Z,84.57
2023-09-08T04:44:10.243Z,84.77
2023-09-08T04:46:30.839Z,84.37
2023-09-08T04:49:39.530Z,84.47
2023-09-08T04:52:46.798Z,84.57
2023-09-08T04:55:54.431Z,84.77
2023-09-08T04:59:02.969Z,84.57
2023-09-08T05:02:09.744Z,84.87
2023-09-08T05:05:16.584Z,84.97
2023-09-08T05:08:25.915Z,84.97
2023-09-08T05:11:32.792Z,84.87
2023-09-08T05:14:42.150Z,84.87
2023-09-08T05:17:51.083Z,84.87
2023-09-08T05:20:58.966Z,84.63
2023-09-08T05:24:06.619Z,84.43
2023-09-08T05:27:14.186Z,84.43
2023-09-08T05:30:23.493Z,84.43
2023-09-08T05:33:30.744Z,84.03
2023-09-08T05:36:38.814Z,84.23
2023-09-08T05:39:46.932Z,84.33
2023-09-08T05:42:54.399Z,84.23
2023-09-08T05:46:02.284Z,83.78
2023-09-08T05:49:11.182Z,83.68
2023-09-08T05:52:18.252Z,83.44
2023-09-08T05:55:25.590Z,83.14
2023-09-08T05:58:34.384Z,82.59
2023-09-08T06:01:42.064Z,82.50
2023-09-08T06:04:48.935Z,82.70
2023-09-08T06:08:06.710Z,82.15
2023-09-08T06:11:02.643Z,81.95
2023-09-08T06:14:09.749Z,81.95
2023-09-08T06:17:16.834Z,82.11
2023-09-08T06:20:26.304Z,81.91
2023-09-08T06:23:36.631Z,82.21
2023-09-08T06:26:34.561Z,81.98
2023-09-08T06:29:43.517Z,81.37
2023-09-08T06:32:51.291Z,80.87
2023-09-08T06:35:58.486Z,80.73
2023-09-08T06:39:06.634Z,80.83
2023-09-08T06:42:13.681Z,80.43
2023-09-08T06:45:20.787Z,80.29
2023-09-08T06:48:28.455Z,79.99
2023-09-08T06:51:37.278Z,79.74
2023-09-08T06:54:44.049Z,78.84
2023-09-08T06:57:51.686Z,78.70
2023-09-08T07:01:00.350Z,78.20
2023-09-08T07:04:07.715Z,77.46
2023-09-08T07:07:15.776Z,77.16
2023-09-08T07:10:25.406Z,76.52
2023-09-08T07:13:32.661Z,76.72
2023-09-08T07:16:40.288Z,77.09
2023-09-08T07:19:49.011Z,76.28
2023-09-08T07:22:56.659Z,76.34
2023-09-08T07:26:03.780Z,76.34
2023-09-08T07:29:11.430Z,76.31
2023-09-08T07:32:20.068Z,75.41
2023-09-08T07:35:27.620Z,75.27
2023-09-08T07:38:35.420Z,74.73
2023-09-08T07:41:44.779Z,74.63
2023-09-08T07:44:52.066Z,73.90
2023-09-08T07:48:00.091Z,74.66
2023-09-08T07:51:08.329Z,74.13
2023-09-08T07:54:16.060Z,73.93
2023-09-08T07:57:23.282Z,74.39
2023-09-08T08:00:32.815Z,73.19
2023-09-08T08:03:40.434Z,72.86
2023-09-08T08:06:47.697Z,71.92
2023-09-08T08:09:54.969Z,70.99
2023-09-08T08:13:03.446Z,69.86
2023-09-08T08:16:10.641Z,67.13
2023-09-08T08:19:18.379Z,66.43
2023-09-08T08:22:27.010Z,65.41
2023-09-08T08:25:34.450Z,65.87
2023-09-08T08:28:42.024Z,64.45
2023-09-08T08:31:50.551Z,64.34
2023-09-08T08:34:57.903Z,64.42
2023-09-08T08:38:05.534Z,63.32
2023-09-08T08:41:14.191Z,63.89
2023-09-08T08:44:22.143Z,61.07
2023-09-08T08:47:29.963Z,61.07
2023-09-08T08:50:38.728Z,61.14
2023-09-08T08:53:46.809Z,60.94
2023-09-08T08:56:54.617Z,61.01
2023-09-08T09:00:02.240Z,59.62
2023-09-08T09:03:14.913Z,59.39
2023-09-08T09:06:12.092Z,58.77
2023-09-08T09:09:19.888Z,58.27
2023-09-08T09:12:29.369Z,58.57
2023-09-08T09:15:37.003Z,59.53
2023-09-08T09:18:44.034Z,57.85
2023-09-08T09:21:52.535Z,58.02
2023-09-08T09:24:59.773Z,56.83
2023-09-08T09:28:07.072Z,56.51
2023-09-08T09:31:16.602Z,55.71
2023-09-08T09:34:24.275Z,55.98
2023-09-08T09:37:31.159Z,55.19
2023-09-08T09:40:38.868Z,55.16
2023-09-08T09:43:47.241Z,55.16
2023-09-08T09:46:55.144Z,55.43
2023-09-08T09:50:02.264Z,54.74
2023-09-08T09:53:11.539Z,53.85
2023-09-08T09:56:18.636Z,54.52
2023-09-08T09:59:25.732Z,53.30
2023-09-08T10:02:34.413Z,52.91
2023-09-08T10:05:42.010Z,53.08
2023-09-08T10:08:49.182Z,51.59
2023-09-08T10:11:57.722Z,51.18
2023-09-08T10:15:05.297Z,51.40
2023-09-08T10:18:12.288Z,52.36
2023-09-08T10:21:19.913Z,51.07
2023-09-08T10:24:28.887Z,50.29
2023-09-08T10:27:35.840Z,49.87
2023-09-08T10:30:43.193Z,49.77
2023-09-08T10:33:52.454Z,49.05
2023-09-08T10:36:59.699Z,48.75
2023-09-08T10:40:06.871Z,49.35
2023-09-08T10:43:15.404Z,49.74
2023-09-08T10:46:22.611Z,49.25
2023-09-08T10:49:29.791Z,50.21
2023-09-08T10:52:38.363Z,48.83
2023-09-08T10:55:46.793Z,48.41
2023-09-08T10:58:54.136Z,48.71
2023-09-08T11:02:01.832Z,48.22
2023-09-08T11:05:10.995Z,48.19
2023-09-08T11:08:17.942Z,49.28
2023-09-08T11:11:25.591Z,47.90
2023-09-08T11:14:34.499Z,48.07
2023-09-08T11:17:41.596Z,47.09
2023-09-08T11:20:48.987Z,46.40
2023-09-08T11:23:57.695Z,46.32
2023-09-08T11:27:05.123Z,46.42
2023-09-08T11:30:12.538Z,46.89
2023-09-08T11:33:21.018Z,45.39
2023-09-08T11:36:28.263Z,44.80
2023-09-08T11:39:35.686Z,44.60
2023-09-08T11:42:44.670Z,44.80
2023-09-08T11:45:52.104Z,45.09
2023-09-08T11:48:59.537Z,44.90
2023-09-08T11:52:07.152Z,45.07
2023-09-08T11:55:15.838Z,45.76
2023-09-08T11:58:23.312Z,44.88
2023-09-08T12:01:31.224Z,44.46
2023-09-08T12:04:39.673Z,45.76
2023-09-08T12:07:47.192Z,44.85
2023-09-08T12:10:54.804Z,44.17
2023-09-08T12:14:03.036Z,43.95
2023-09-08T12:17:10.770Z,43.46
2023-09-08T12:20:17.884Z,43.75
2023-09-08T12:23:26.601Z,42.25
2023-09-08T12:26:34.224Z,41.17
2023-09-08T12:29:41.431Z,41.47
2023-09-08T12:32:48.684Z,42.65
2023-09-08T12:35:57.305Z,42.25
2023-09-08T12:39:04.987Z,42.53
2023-09-08T12:42:12.238Z,41.25
2023-09-08T12:45:20.574Z,43.04
2023-09-08T12:48:28.380Z,41.94
2023-09-08T12:51:35.310Z,42.43
2023-09-08T12:54:43.925Z,41.64
2023-09-08T12:57:51.380Z,41.82
2023-09-08T13:00:58.147Z,40.64
2023-09-08T13:04:07.299Z,41.14
2023-09-08T13:07:14.458Z,42.24
2023-09-08T13:10:21.320Z,41.56
2023-09-08T13:13:28.528Z,40.96
2023-09-08T13:16:37.122Z,41.64
2023-09-08T13:19:45.266Z,41.24
2023-09-08T13:22:52.846Z,40.74
2023-09-08T13:26:01.302Z,41.24
2023-09-08T13:29:08.632Z,40.92
2023-09-08T13:32:17.376Z,40.62
2023-09-08T13:35:25.999Z,40.33
2023-09-08T13:38:33.261Z,40.11
2023-09-08T13:41:40.440Z,40.90
2023-09-08T13:44:49.272Z,40.90
2023-09-08T13:47:56.852Z,40.11
2023-09-08T13:51:06.534Z,41.51
2023-09-08T13:54:18.179Z,39.82
2023-09-08T13:57:16.278Z,39.53
2023-09-08T14:00:25.096Z,41.31
2023-09-08T14:03:41.334Z,39.72
2023-09-08T14:06:41.783Z,41.02
2023-09-08T14:09:53.089Z,39.53
2023-09-08T14:12:48.530Z,40.90
2023-09-08T14:15:56.784Z,39.01
2023-09-08T14:19:03.980Z,39.41
2023-09-08T14:22:11.156Z,39.11
2023-09-08T14:25:19.842Z,40.31
2023-09-08T14:28:27.102Z,40.01
2023-09-08T14:31:34.167Z,40.01
2023-09-08T14:34:41.399Z,40.01
2023-09-08T14:37:49.585Z,39.33
2023-09-08T14:40:57.230Z,39.74
2023-09-08T14:44:04.559Z,40.13
2023-09-08T14:47:13.217Z,41.02
2023-09-08T14:50:20.833Z,41.19
2023-09-08T14:53:28.112Z,40.70
2023-09-08T14:56:36.772Z,40.01
2023-09-08T14:59:44.508Z,40.41
2023-09-08T15:02:51.520Z,41.61
2023-09-08T15:06:00.682Z,41.61
2023-09-08T15:09:08.423Z,41.61
2023-09-08T15:12:15.512Z,41.80
2023-09-08T15:15:23.187Z,41.29
2023-09-08T15:18:32.255Z,41.58
2023-09-08T15:21:39.487Z,41.88
2023-09-08T15:24:46.722Z,43.65
2023-09-08T15:27:55.360Z,40.72
2023-09-08T15:31:02.563Z,40.92
2023-09-08T15:34:10.075Z,40.94
2023-09-08T15:37:18.686Z,42.43
2023-09-08T15:40:25.828Z,41.94
2023-09-08T15:43:32.881Z,41.74
2023-09-08T15:46:42.026Z,41.63
2023-09-08T15:49:49.526Z,41.92
2023-09-08T15:52:56.357Z,43.02
2023-09-08T15:56:05.491Z,42.94
2023-09-08T15:59:12.773Z,43.02
2023-09-08T16:02:20.075Z,42.53
2023-09-08T16:05:27.449Z,42.06
2023-09-08T16:08:36.064Z,42.65
2023-09-08T16:11:43.193Z,43.14
2023-09-08T16:14:50.383Z,43.24
2023-09-08T16:17:59.309Z,43.16
2023-09-08T16:21:06.669Z,43.16
2023-09-08T16:24:13.904Z,42.99
2023-09-08T16:27:22.901Z,43.18
2023-09-08T16:30:30.122Z,43.48
2023-09-08T16:33:37.428Z,44.09
2023-09-08T16:36:46.807Z,45.96
2023-09-08T16:39:53.714Z,45.49
2023-09-08T16:43:00.844Z,46.79
2023-09-08T16:46:08.424Z,45.73
2023-09-08T16:49:16.791Z,46.12
2023-09-08T16:52:23.974Z,45.43
2023-09-08T16:55:31.495Z,46.04
2023-09-08T16:58:39.780Z,48.24
2023-09-08T17:01:47.365Z,49.65
2023-09-08T17:04:54.452Z,51.97
2023-09-08T17:08:03.063Z,50.12
2023-09-08T17:11:10.511Z,52.22
2023-09-08T17:14:17.571Z,52.93
2023-09-08T17:17:25.789Z,55.63
2023-09-08T17:20:33.045Z,56.97
2023-09-08T17:23:41.716Z,58.81
2023-09-08T17:26:48.846Z,59.96
2023-09-08T17:29:59.589Z,60.26
2023-09-08T17:33:07.800Z,62.47
2023-09-08T17:36:14.898Z,62.90
2023-09-08T17:39:23.142Z,63.43
2023-09-08T17:42:30.741Z,62.56
2023-09-08T17:45:37.789Z,61.90
2023-09-08T17:48:46.431Z,60.00
2023-09-08T17:51:53.602Z,60.90
2023-09-08T17:55:01.070Z,60.33
2023-09-08T17:58:09.786Z,60.33
2023-09-08T18:01:16.654Z,61.36
2023-09-08T18:04:24.255Z,61.06
2023-09-08T18:07:31.146Z,59.36
2023-09-08T18:10:39.727Z,59.36
2023-09-08T18:13:46.922Z,57.77
2023-09-08T18:16:54.696Z,56.45
2023-09-08T18:20:04.067Z,55.55
2023-09-08T18:23:11.485Z,55.43
2023-09-08T18:26:18.677Z,54.73
2023-09-08T18:29:27.272Z,54.60
2023-09-08T18:32:34.833Z,54.21
2023-09-08T18:35:42.254Z,54.50
2023-09-08T18:38:50.868Z,54.50
2023-09-08T18:41:58.191Z,54.80
2023-09-08T18:45:05.747Z,55.20
2023-09-08T18:48:14.709Z,55.43
2023-09-08T18:51:21.923Z,55.53
2023-09-08T18:54:29.794Z,56.12
2023-09-08T18:57:37.053Z,56.32
2023-09-08T19:00:46.143Z,56.32
2023-09-08T19:03:53.132Z,56.65
2023-09-08T19:07:00.356Z,56.95
2023-09-08T19:10:09.663Z,57.05
2023-09-08T19:13:18.063Z,57.64
2023-09-08T19:16:25.052Z,57.67
2023-09-08T19:19:34.053Z,58.17
2023-09-08T19:22:41.654Z,58.47
2023-09-08T19:25:49.082Z,58.50
2023-09-08T19:28:58.452Z,58.70
2023-09-08T19:32:07.575Z,59.00
2023-09-08T19:35:14.615Z,59.30
2023-09-08T19:38:21.870Z,59.72
2023-09-08T19:41:30.624Z,59.82
2023-09-08T19:44:38.279Z,59.95
2023-09-08T19:47:46.388Z,60.25
2023-09-08T19:50:56.293Z,60.55
2023-09-08T19:54:04.838Z,60.88
2023-09-08T19:57:11.980Z,61.38
2023-09-08T20:00:21.665Z,61.47
2023-09-08T20:03:29.471Z,61.68
2023-09-08T20:06:39.310Z,61.80
2023-09-08T20:09:40.955Z,61.90
2023-09-08T20:12:49.049Z,62.10
2023-09-08T20:15:56.160Z,62.40
2023-09-08T20:19:04.691Z,62.30
2023-09-08T20:22:13.473Z,62.50
2023-09-08T20:25:20.749Z,62.83
2023-09-08T20:28:27.636Z,63.03
2023-09-08T20:31:37.547Z,63.33
2023-09-08T20:34:44.362Z,63.33
2023-09-08T20:37:51.845Z,63.46
2023-09-08T20:41:00.652Z,64.16
2023-09-08T20:44:08.677Z,64.26
2023-09-08T20:47:16.147Z,63.86
2023-09-08T20:50:24.861Z,64.06
2023-09-08T20:53:33.026Z,64.09
2023-09-08T20:56:40.355Z,64.79
2023-09-08T20:59:47.979Z,64.39
2023-09-08T21:02:56.909Z,65.69
2023-09-08T21:06:04.273Z,64.99
2023-09-08T21:09:11.671Z,65.33
2023-09-08T21:12:20.869Z,66.32
2023-09-08T21:15:28.259Z,67.55
2023-09-08T21:18:35.069Z,69.19
2023-09-08T21:21:44.447Z,69.19
2023-09-08T21:24:51.821Z,70.53
2023-09-08T21:27:59.040Z,71.16
2023-09-08T21:31:07.680Z,72.30
2023-09-08T21:34:15.382Z,72.94
2023-09-08T21:37:22.981Z,73.17
2023-09-08T21:40:32.035Z,74.07
2023-09-08T21:43:39.893Z,75.11
2023-09-08T21:46:47.139Z,75.21
2023-09-08T21:49:54.986Z,75.85
2023-09-08T21:53:03.732Z,76.15
2023-09-08T21:56:11.281Z,76.25
2023-09-08T21:59:19.117Z,76.65
2023-09-08T22:02:28.147Z,76.86
2023-09-08T22:05:35.632Z,76.56
2023-09-08T22:08:43.040Z,75.85
2023-09-08T22:11:51.725Z,75.95
2023-09-08T22:14:59.466Z,75.65
2023-09-08T22:18:06.605Z,76.05
2023-09-08T22:21:15.345Z,75.99
2023-09-08T22:24:22.515Z,76.29
2023-09-08T22:27:30.275Z,75.45
2023-09-08T22:30:37.033Z,74.95
2023-09-08T22:33:46.646Z,74.55
2023-09-08T22:36:53.824Z,74.65
2023-09-08T22:40:00.980Z,74.24
2023-09-08T22:43:11.101Z,73.84
2023-09-08T22:46:18.013Z,72.60
2023-09-08T22:49:25.824Z,72.60
2023-09-08T22:52:34.578Z,71.36
2023-09-08T22:55:41.956Z,72.17
2023-09-08T22:58:49.562Z,72.97
2023-09-08T23:01:58.729Z,73.50
2023-09-08T23:05:05.747Z,73.84
2023-09-08T23:08:13.049Z,74.85
2023-09-08T23:11:20.379Z,75.49
2023-09-08T23:14:29.816Z,76.19
2023-09-08T23:17:37.631Z,76.09
2023-09-08T23:20:44.668Z,76.03
2023-09-08T23:23:53.746Z,76.53
2023-09-08T23:27:00.512Z,76.36
2023-09-08T23:30:08.754Z,76.67
2023-09-08T23:33:17.462Z,77.07
2023-09-08T23:36:24.605Z,76.90
2023-09-08T23:39:32.227Z,76.70
2023-09-08T23:42:41.352Z,76.90
2023-09-08T23:45:49.219Z,76.64
2023-09-08T23:48:57.907Z,77.64
2023-09-08T23:52:05.832Z,77.44
2023-09-08T23:55:14.613Z,77.55
2023-09-08T23:58:21.898Z,77.44
